sensor_id;sensor_type;location;lat;lon;timestamp;temperature;humidity
10231;DHT22;62604;49.432;8.680;2023-02-01T00:02:17;5.70;99.90
10231;DHT22;62604;49.432;8.680;2023-02-01T00:04:44;5.70;99.90
10231;DHT22;62604;49.432;8.680;2023-02-01T00:07:11;5.80;99.90
10231;DHT22;62604;49.432;8.680;2023-02-01T00:09:37;5.80;99.90
10231;DHT22;62604;49.432;8.680;2023-02-01T00:12:06;5.80;99.90
10231;DHT22;62604;49.432;8.680;2023-02-01T00:14:33;5.80;99.90
10231;DHT22;62604;49.432;8.680;2023-02-01T00:17:04;5.80;99.90
10231;DHT22;62604;49.432;8.680;2023-02-01T00:19:31;5.80;99.90
10231;DHT22;62604;49.432;8.680;2023-02-01T00:21:58;5.80;99.90
10231;DHT22;62604;49.432;8.680;2023-02-01T00:24:25;5.80;99.90
10231;DHT22;62604;49.432;8.680;2023-02-01T00:26:52;5.80;99.90
10231;DHT22;62604;49.432;8.680;2023-02-01T00:29:20;5.80;99.90
10231;DHT22;62604;49.432;8.680;2023-02-01T00:31:50;5.80;99.90
10231;DHT22;62604;49.432;8.680;2023-02-01T00:34:17;5.80;99.90
10231;DHT22;62604;49.432;8.680;2023-02-01T00:36:44;5.80;99.90
10231;DHT22;62604;49.432;8.680;2023-02-01T00:39:11;5.80;99.90
10231;DHT22;62604;49.432;8.680;2023-02-01T00:41:38;5.70;99.90
10231;DHT22;62604;49.432;8.680;2023-02-01T00:44:06;5.70;99.90
10231;DHT22;62604;49.432;8.680;2023-02-01T00:46:34;5.70;99.90
10231;DHT22;62604;49.432;8.680;2023-02-01T00:49:01;5.80;99.90
10231;DHT22;62604;49.432;8.680;2023-02-01T00:51:29;5.80;99.90
10231;DHT22;62604;49.432;8.680;2023-02-01T00:53:56;5.80;99.90
10231;DHT22;62604;49.432;8.680;2023-02-01T00:56:25;5.80;99.90
10231;DHT22;62604;49.432;8.680;2023-02-01T00:58:53;5.70;99.90
10231;DHT22;62604;49.432;8.680;2023-02-01T01:01:22;5.70;99.90
10231;DHT22;62604;49.432;8.680;2023-02-01T01:03:52;5.80;99.90
10231;DHT22;62604;49.432;8.680;2023-02-01T01:06:21;5.80;99.90
10231;DHT22;62604;49.432;8.680;2023-02-01T01:08:49;5.80;99.90
10231;DHT22;62604;49.432;8.680;2023-02-01T01:11:19;5.80;99.90
10231;DHT22;62604;49.432;8.680;2023-02-01T01:13:47;5.80;99.90
10231;DHT22;62604;49.432;8.680;2023-02-01T01:16:14;5.70;99.90
10231;DHT22;62604;49.432;8.680;2023-02-01T01:18:42;5.80;99.90
10231;DHT22;62604;49.432;8.680;2023-02-01T01:21:13;5.80;99.90
10231;DHT22;62604;49.432;8.680;2023-02-01T01:23:40;5.80;99.90
10231;DHT22;62604;49.432;8.680;2023-02-01T01:26:08;5.80;99.90
10231;DHT22;62604;49.432;8.680;2023-02-01T01:28:35;5.80;99.90
10231;DHT22;62604;49.432;8.680;2023-02-01T01:31:02;5.80;99.90
10231;DHT22;62604;49.432;8.680;2023-02-01T01:33:29;5.80;99.90
10231;DHT22;62604;49.432;8.680;2023-02-01T01:35:56;5.80;99.90
10231;DHT22;62604;49.432;8.680;2023-02-01T01:38:24;5.90;99.90
10231;DHT22;62604;49.432;8.680;2023-02-01T01:40:51;5.90;99.90
10231;DHT22;62604;49.432;8.680;2023-02-01T01:43:19;5.90;99.90
10231;DHT22;62604;49.432;8.680;2023-02-01T01:45:48;5.80;99.90
10231;DHT22;62604;49.432;8.680;2023-02-01T01:48:17;5.80;99.90
10231;DHT22;62604;49.432;8.680;2023-02-01T01:50:49;5.90;99.90
10231;DHT22;62604;49.432;8.680;2023-02-01T01:53:19;5.80;99.90
10231;DHT22;62604;49.432;8.680;2023-02-01T01:55:50;5.90;99.90
10231;DHT22;62604;49.432;8.680;2023-02-01T01:58:22;5.80;99.90
10231;DHT22;62604;49.432;8.680;2023-02-01T02:00:50;5.90;99.90
10231;DHT22;62604;49.432;8.680;2023-02-01T02:03:20;5.90;99.90
10231;DHT22;62604;49.432;8.680;2023-02-01T02:05:49;5.80;99.90
10231;DHT22;62604;49.432;8.680;2023-02-01T02:08:18;5.80;99.90
10231;DHT22;62604;49.432;8.680;2023-02-01T02:10:46;5.80;99.90
10231;DHT22;62604;49.432;8.680;2023-02-01T02:13:32;5.80;99.90
10231;DHT22;62604;49.432;8.680;2023-02-01T02:16:11;5.90;99.90
10231;DHT22;62604;49.432;8.680;2023-02-01T02:18:46;5.80;99.90
10231;DHT22;62604;49.432;8.680;2023-02-01T02:21:18;5.80;99.90
10231;DHT22;62604;49.432;8.680;2023-02-01T02:27:05;5.80;99.90
10231;DHT22;62604;49.432;8.680;2023-02-01T02:30:25;5.80;99.90
10231;DHT22;62604;49.432;8.680;2023-02-01T02:33:37;5.80;99.90
10231;DHT22;62604;49.432;8.680;2023-02-01T02:36:10;5.80;99.90
10231;DHT22;62604;49.432;8.680;2023-02-01T02:38:44;5.80;99.90
10231;DHT22;62604;49.432;8.680;2023-02-01T02:41:16;5.80;99.90
10231;DHT22;62604;49.432;8.680;2023-02-01T02:44:02;5.80;99.90
10231;DHT22;62604;49.432;8.680;2023-02-01T02:46:50;5.80;99.90
10231;DHT22;62604;49.432;8.680;2023-02-01T02:49:41;5.90;99.90
10231;DHT22;62604;49.432;8.680;2023-02-01T02:52:32;5.90;99.90
10231;DHT22;62604;49.432;8.680;2023-02-01T02:55:19;5.90;99.90
10231;DHT22;62604;49.432;8.680;2023-02-01T02:57:46;5.90;99.90
10231;DHT22;62604;49.432;8.680;2023-02-01T03:00:32;5.90;99.90
10231;DHT22;62604;49.432;8.680;2023-02-01T03:03:17;5.90;99.90
10231;DHT22;62604;49.432;8.680;2023-02-01T03:06:03;5.90;99.90
10231;DHT22;62604;49.432;8.680;2023-02-01T03:08:31;5.90;99.90
10231;DHT22;62604;49.432;8.680;2023-02-01T03:11:01;5.90;99.90
10231;DHT22;62604;49.432;8.680;2023-02-01T03:13:36;5.90;99.90
10231;DHT22;62604;49.432;8.680;2023-02-01T03:16:07;5.90;99.90
10231;DHT22;62604;49.432;8.680;2023-02-01T03:18:44;5.90;99.90
10231;DHT22;62604;49.432;8.680;2023-02-01T03:21:17;5.90;99.90
10231;DHT22;62604;49.432;8.680;2023-02-01T03:23:47;5.90;99.90
10231;DHT22;62604;49.432;8.680;2023-02-01T03:26:17;5.90;99.90
10231;DHT22;62604;49.432;8.680;2023-02-01T03:28:49;5.90;99.90
10231;DHT22;62604;49.432;8.680;2023-02-01T03:31:18;5.90;99.90
10231;DHT22;62604;49.432;8.680;2023-02-01T03:33:46;5.90;99.90
10231;DHT22;62604;49.432;8.680;2023-02-01T03:36:22;5.90;99.90
10231;DHT22;62604;49.432;8.680;2023-02-01T03:38:55;5.90;99.90
10231;DHT22;62604;49.432;8.680;2023-02-01T03:41:30;5.80;99.90
10231;DHT22;62604;49.432;8.680;2023-02-01T03:44:04;5.90;99.90
10231;DHT22;62604;49.432;8.680;2023-02-01T03:46:35;5.90;99.90
10231;DHT22;62604;49.432;8.680;2023-02-01T03:49:06;5.90;99.90
10231;DHT22;62604;49.432;8.680;2023-02-01T03:51:36;5.90;99.90
10231;DHT22;62604;49.432;8.680;2023-02-01T03:54:07;5.90;99.90
10231;DHT22;62604;49.432;8.680;2023-02-01T03:56:37;5.80;99.90
10231;DHT22;62604;49.432;8.680;2023-02-01T03:59:04;5.90;99.90
10231;DHT22;62604;49.432;8.680;2023-02-01T04:01:31;5.80;99.90
10231;DHT22;62604;49.432;8.680;2023-02-01T04:03:59;5.80;99.90
10231;DHT22;62604;49.432;8.680;2023-02-01T04:06:26;5.80;99.90
10231;DHT22;62604;49.432;8.680;2023-02-01T04:08:54;5.90;99.90
10231;DHT22;62604;49.432;8.680;2023-02-01T04:11:21;5.90;99.90
10231;DHT22;62604;49.432;8.680;2023-02-01T04:13:48;5.90;99.90
10231;DHT22;62604;49.432;8.680;2023-02-01T04:16:14;5.90;99.90
10231;DHT22;62604;49.432;8.680;2023-02-01T04:18:41;5.90;99.90
10231;DHT22;62604;49.432;8.680;2023-02-01T04:21:08;5.90;99.90
10231;DHT22;62604;49.432;8.680;2023-02-01T04:23:35;5.90;99.90
10231;DHT22;62604;49.432;8.680;2023-02-01T04:26:04;5.90;99.90
10231;DHT22;62604;49.432;8.680;2023-02-01T04:28:32;5.90;99.90
10231;DHT22;62604;49.432;8.680;2023-02-01T04:30:59;5.90;99.90
10231;DHT22;62604;49.432;8.680;2023-02-01T04:33:25;5.90;99.90
10231;DHT22;62604;49.432;8.680;2023-02-01T04:35:52;5.90;99.90
10231;DHT22;62604;49.432;8.680;2023-02-01T04:38:19;5.90;99.90
10231;DHT22;62604;49.432;8.680;2023-02-01T04:40:47;5.90;99.90
10231;DHT22;62604;49.432;8.680;2023-02-01T04:43:16;5.90;99.90
10231;DHT22;62604;49.432;8.680;2023-02-01T04:45:47;5.90;99.90
10231;DHT22;62604;49.432;8.680;2023-02-01T04:48:14;5.90;99.90
10231;DHT22;62604;49.432;8.680;2023-02-01T04:50:42;5.90;99.90
10231;DHT22;62604;49.432;8.680;2023-02-01T04:53:10;6.00;99.90
10231;DHT22;62604;49.432;8.680;2023-02-01T04:55:37;6.00;99.90
10231;DHT22;62604;49.432;8.680;2023-02-01T04:58:04;5.90;99.90
10231;DHT22;62604;49.432;8.680;2023-02-01T05:00:32;6.00;99.90
10231;DHT22;62604;49.432;8.680;2023-02-01T05:02:59;6.00;99.90
10231;DHT22;62604;49.432;8.680;2023-02-01T05:05:27;6.00;99.90
10231;DHT22;62604;49.432;8.680;2023-02-01T05:07:54;6.00;99.90
10231;DHT22;62604;49.432;8.680;2023-02-01T05:10:21;6.00;99.90
10231;DHT22;62604;49.432;8.680;2023-02-01T05:12:48;6.00;99.90
10231;DHT22;62604;49.432;8.680;2023-02-01T05:15:33;6.00;99.90
10231;DHT22;62604;49.432;8.680;2023-02-01T05:18:00;6.00;99.90
10231;DHT22;62604;49.432;8.680;2023-02-01T05:20:27;5.90;99.90
10231;DHT22;62604;49.432;8.680;2023-02-01T05:22:54;5.90;99.90
10231;DHT22;62604;49.432;8.680;2023-02-01T05:25:21;5.90;99.90
10231;DHT22;62604;49.432;8.680;2023-02-01T05:27:48;5.90;99.90
10231;DHT22;62604;49.432;8.680;2023-02-01T05:30:15;5.90;99.90
10231;DHT22;62604;49.432;8.680;2023-02-01T05:32:43;5.90;99.90
10231;DHT22;62604;49.432;8.680;2023-02-01T05:35:10;5.90;99.90
10231;DHT22;62604;49.432;8.680;2023-02-01T05:37:37;5.90;99.90
10231;DHT22;62604;49.432;8.680;2023-02-01T05:40:05;5.80;99.90
10231;DHT22;62604;49.432;8.680;2023-02-01T05:42:32;5.80;99.90
10231;DHT22;62604;49.432;8.680;2023-02-01T05:44:59;5.70;99.90
10231;DHT22;62604;49.432;8.680;2023-02-01T05:47:26;5.70;99.90
10231;DHT22;62604;49.432;8.680;2023-02-01T05:49:54;5.70;99.90
10231;DHT22;62604;49.432;8.680;2023-02-01T05:52:21;5.60;99.90
10231;DHT22;62604;49.432;8.680;2023-02-01T05:54:48;5.60;99.90
10231;DHT22;62604;49.432;8.680;2023-02-01T05:57:15;5.60;99.90
10231;DHT22;62604;49.432;8.680;2023-02-01T05:59:42;5.60;99.90
10231;DHT22;62604;49.432;8.680;2023-02-01T06:02:10;5.60;99.90
10231;DHT22;62604;49.432;8.680;2023-02-01T06:04:37;5.60;99.90
10231;DHT22;62604;49.432;8.680;2023-02-01T06:07:06;5.60;99.90
10231;DHT22;62604;49.432;8.680;2023-02-01T06:09:34;5.70;99.90
10231;DHT22;62604;49.432;8.680;2023-02-01T06:12:01;5.70;99.90
10231;DHT22;62604;49.432;8.680;2023-02-01T06:14:28;5.70;99.90
10231;DHT22;62604;49.432;8.680;2023-02-01T06:16:55;5.70;99.90
10231;DHT22;62604;49.432;8.680;2023-02-01T06:19:23;5.70;99.90
10231;DHT22;62604;49.432;8.680;2023-02-01T06:21:50;5.70;99.90
10231;DHT22;62604;49.432;8.680;2023-02-01T06:24:18;5.60;99.90
10231;DHT22;62604;49.432;8.680;2023-02-01T06:26:45;5.70;99.90
10231;DHT22;62604;49.432;8.680;2023-02-01T06:29:12;5.70;99.90
10231;DHT22;62604;49.432;8.680;2023-02-01T06:31:39;5.70;99.90
10231;DHT22;62604;49.432;8.680;2023-02-01T06:34:08;5.70;99.90
10231;DHT22;62604;49.432;8.680;2023-02-01T06:36:35;5.70;99.90
10231;DHT22;62604;49.432;8.680;2023-02-01T06:39:02;5.70;99.90
10231;DHT22;62604;49.432;8.680;2023-02-01T06:41:30;5.70;99.90
10231;DHT22;62604;49.432;8.680;2023-02-01T06:44:00;5.70;99.90
10231;DHT22;62604;49.432;8.680;2023-02-01T06:46:27;5.70;99.90
10231;DHT22;62604;49.432;8.680;2023-02-01T06:48:54;5.70;99.90
10231;DHT22;62604;49.432;8.680;2023-02-01T06:51:22;5.70;99.90
10231;DHT22;62604;49.432;8.680;2023-02-01T06:53:50;5.70;99.90
10231;DHT22;62604;49.432;8.680;2023-02-01T06:56:17;5.70;99.90
10231;DHT22;62604;49.432;8.680;2023-02-01T06:58:46;5.70;99.90
10231;DHT22;62604;49.432;8.680;2023-02-01T07:01:13;5.80;99.90
10231;DHT22;62604;49.432;8.680;2023-02-01T07:03:40;5.70;99.90
10231;DHT22;62604;49.432;8.680;2023-02-01T07:06:07;5.80;99.90
10231;DHT22;62604;49.432;8.680;2023-02-01T07:08:36;5.70;99.90
10231;DHT22;62604;49.432;8.680;2023-02-01T07:11:05;5.70;99.90
10231;DHT22;62604;49.432;8.680;2023-02-01T07:13:32;5.70;99.90
10231;DHT22;62604;49.432;8.680;2023-02-01T07:16:01;5.70;99.90
10231;DHT22;62604;49.432;8.680;2023-02-01T07:18:30;5.70;99.90
10231;DHT22;62604;49.432;8.680;2023-02-01T07:20:57;5.70;99.90
10231;DHT22;62604;49.432;8.680;2023-02-01T07:23:24;5.60;99.90
10231;DHT22;62604;49.432;8.680;2023-02-01T07:25:53;5.60;99.90
10231;DHT22;62604;49.432;8.680;2023-02-01T07:28:21;5.60;99.90
10231;DHT22;62604;49.432;8.680;2023-02-01T07:30:48;5.50;99.90
10231;DHT22;62604;49.432;8.680;2023-02-01T07:33:18;5.50;99.90
10231;DHT22;62604;49.432;8.680;2023-02-01T07:35:46;5.60;99.90
10231;DHT22;62604;49.432;8.680;2023-02-01T07:38:13;5.60;99.90
10231;DHT22;62604;49.432;8.680;2023-02-01T07:40:40;5.60;99.90
10231;DHT22;62604;49.432;8.680;2023-02-01T07:43:07;5.60;99.90
10231;DHT22;62604;49.432;8.680;2023-02-01T07:45:34;5.60;99.90
10231;DHT22;62604;49.432;8.680;2023-02-01T07:48:01;5.70;99.90
10231;DHT22;62604;49.432;8.680;2023-02-01T07:50:30;5.80;99.90
10231;DHT22;62604;49.432;8.680;2023-02-01T07:52:58;5.90;99.90
10231;DHT22;62604;49.432;8.680;2023-02-01T07:55:26;6.00;99.90
10231;DHT22;62604;49.432;8.680;2023-02-01T07:57:56;6.20;99.90
10231;DHT22;62604;49.432;8.680;2023-02-01T08:00:23;6.20;99.90
10231;DHT22;62604;49.432;8.680;2023-02-01T08:03:07;6.20;99.90
10231;DHT22;62604;49.432;8.680;2023-02-01T08:05:35;6.30;99.90
10231;DHT22;62604;49.432;8.680;2023-02-01T08:08:03;6.40;99.90
10231;DHT22;62604;49.432;8.680;2023-02-01T08:10:30;6.50;99.90
10231;DHT22;62604;49.432;8.680;2023-02-01T08:12:58;6.50;99.90
10231;DHT22;62604;49.432;8.680;2023-02-01T08:15:25;6.60;99.90
10231;DHT22;62604;49.432;8.680;2023-02-01T08:17:52;6.70;99.90
10231;DHT22;62604;49.432;8.680;2023-02-01T08:20:21;6.60;99.90
10231;DHT22;62604;49.432;8.680;2023-02-01T08:22:50;6.60;99.90
10231;DHT22;62604;49.432;8.680;2023-02-01T08:25:17;6.60;99.90
10231;DHT22;62604;49.432;8.680;2023-02-01T08:27:44;6.60;99.90
10231;DHT22;62604;49.432;8.680;2023-02-01T08:30:12;6.60;99.90
10231;DHT22;62604;49.432;8.680;2023-02-01T08:32:39;6.60;99.90
10231;DHT22;62604;49.432;8.680;2023-02-01T08:35:07;6.80;99.90
10231;DHT22;62604;49.432;8.680;2023-02-01T08:37:34;6.80;99.90
10231;DHT22;62604;49.432;8.680;2023-02-01T08:40:04;6.90;99.90
10231;DHT22;62604;49.432;8.680;2023-02-01T08:42:31;6.80;99.90
10231;DHT22;62604;49.432;8.680;2023-02-01T08:45:15;6.80;99.90
10231;DHT22;62604;49.432;8.680;2023-02-01T08:47:42;6.70;99.90
10231;DHT22;62604;49.432;8.680;2023-02-01T08:50:10;6.70;99.90
10231;DHT22;62604;49.432;8.680;2023-02-01T08:52:37;6.60;99.90
10231;DHT22;62604;49.432;8.680;2023-02-01T08:55:06;6.60;99.90
10231;DHT22;62604;49.432;8.680;2023-02-01T08:57:33;6.60;99.90
10231;DHT22;62604;49.432;8.680;2023-02-01T09:00:01;6.60;99.90
10231;DHT22;62604;49.432;8.680;2023-02-01T09:02:28;6.60;99.90
10231;DHT22;62604;49.432;8.680;2023-02-01T09:04:56;6.60;99.90
10231;DHT22;62604;49.432;8.680;2023-02-01T09:07:23;6.60;99.90
10231;DHT22;62604;49.432;8.680;2023-02-01T09:09:50;6.60;99.90
10231;DHT22;62604;49.432;8.680;2023-02-01T09:12:19;6.50;99.90
10231;DHT22;62604;49.432;8.680;2023-02-01T09:14:46;6.50;99.90
10231;DHT22;62604;49.432;8.680;2023-02-01T09:17:13;6.50;99.90
10231;DHT22;62604;49.432;8.680;2023-02-01T09:19:40;6.40;99.90
10231;DHT22;62604;49.432;8.680;2023-02-01T09:22:07;6.50;99.90
10231;DHT22;62604;49.432;8.680;2023-02-01T09:24:34;6.50;99.90
10231;DHT22;62604;49.432;8.680;2023-02-01T09:27:01;6.60;99.90
10231;DHT22;62604;49.432;8.680;2023-02-01T09:29:29;6.70;99.90
10231;DHT22;62604;49.432;8.680;2023-02-01T09:31:56;6.80;99.90
10231;DHT22;62604;49.432;8.680;2023-02-01T09:34:23;6.90;99.90
10231;DHT22;62604;49.432;8.680;2023-02-01T09:36:50;7.00;99.90
10231;DHT22;62604;49.432;8.680;2023-02-01T09:39:17;7.10;99.90
10231;DHT22;62604;49.432;8.680;2023-02-01T09:41:54;7.20;99.90
10231;DHT22;62604;49.432;8.680;2023-02-01T09:44:41;7.20;99.90
10231;DHT22;62604;49.432;8.680;2023-02-01T09:47:12;7.20;99.90
10231;DHT22;62604;49.432;8.680;2023-02-01T09:49:46;7.30;99.90
10231;DHT22;62604;49.432;8.680;2023-02-01T09:52:18;7.30;99.90
10231;DHT22;62604;49.432;8.680;2023-02-01T09:54:51;7.30;99.90
10231;DHT22;62604;49.432;8.680;2023-02-01T09:57:23;7.40;99.90
10231;DHT22;62604;49.432;8.680;2023-02-01T09:59:57;7.40;99.90
10231;DHT22;62604;49.432;8.680;2023-02-01T10:02:28;7.40;99.90
10231;DHT22;62604;49.432;8.680;2023-02-01T10:04:58;7.30;99.90
10231;DHT22;62604;49.432;8.680;2023-02-01T10:07:32;7.20;99.90
10231;DHT22;62604;49.432;8.680;2023-02-01T10:10:03;7.20;99.90
10231;DHT22;62604;49.432;8.680;2023-02-01T10:12:57;7.10;99.90
10231;DHT22;62604;49.432;8.680;2023-02-01T10:15:35;7.10;99.90
10231;DHT22;62604;49.432;8.680;2023-02-01T10:18:22;7.10;99.90
10231;DHT22;62604;49.432;8.680;2023-02-01T10:20:57;7.10;99.90
10231;DHT22;62604;49.432;8.680;2023-02-01T10:26:19;7.00;99.90
10231;DHT22;62604;49.432;8.680;2023-02-01T10:28:49;7.10;99.90
10231;DHT22;62604;49.432;8.680;2023-02-01T10:31:18;7.20;99.90
10231;DHT22;62604;49.432;8.680;2023-02-01T10:33:49;7.30;99.90
10231;DHT22;62604;49.432;8.680;2023-02-01T10:36:19;7.30;98.90
10231;DHT22;62604;49.432;8.680;2023-02-01T10:38:48;7.30;97.30
10231;DHT22;62604;49.432;8.680;2023-02-01T10:41:16;7.30;96.60
10231;DHT22;62604;49.432;8.680;2023-02-01T10:43:46;7.30;95.90
10231;DHT22;62604;49.432;8.680;2023-02-01T10:46:14;7.30;96.00
10231;DHT22;62604;49.432;8.680;2023-02-01T10:48:44;7.30;95.90
10231;DHT22;62604;49.432;8.680;2023-02-01T10:51:16;7.30;96.50
10231;DHT22;62604;49.432;8.680;2023-02-01T10:53:50;7.30;96.70
10231;DHT22;62604;49.432;8.680;2023-02-01T10:56:23;7.20;96.90
10231;DHT22;62604;49.432;8.680;2023-02-01T10:58:50;7.20;96.90
10231;DHT22;62604;49.432;8.680;2023-02-01T11:01:20;7.10;97.40
10231;DHT22;62604;49.432;8.680;2023-02-01T11:03:54;7.00;97.80
10231;DHT22;62604;49.432;8.680;2023-02-01T11:06:27;7.00;97.10
10231;DHT22;62604;49.432;8.680;2023-02-01T11:08:56;7.10;97.50
10231;DHT22;62604;49.432;8.680;2023-02-01T11:11:24;7.10;97.40
10231;DHT22;62604;49.432;8.680;2023-02-01T11:13:53;7.10;96.60
10231;DHT22;62604;49.432;8.680;2023-02-01T11:16:21;7.10;95.90
10231;DHT22;62604;49.432;8.680;2023-02-01T11:18:54;7.10;96.00
10231;DHT22;62604;49.432;8.680;2023-02-01T11:21:22;7.10;95.10
10231;DHT22;62604;49.432;8.680;2023-02-01T11:23:49;7.10;94.70
10231;DHT22;62604;49.432;8.680;2023-02-01T11:26:21;7.10;94.20
10231;DHT22;62604;49.432;8.680;2023-02-01T11:28:53;7.10;94.10
10231;DHT22;62604;49.432;8.680;2023-02-01T11:31:22;7.10;94.10
10231;DHT22;62604;49.432;8.680;2023-02-01T11:33:51;7.20;94.10
10231;DHT22;62604;49.432;8.680;2023-02-01T11:36:24;7.20;93.50
10231;DHT22;62604;49.432;8.680;2023-02-01T11:38:54;7.20;93.10
10231;DHT22;62604;49.432;8.680;2023-02-01T11:41:33;7.20;93.30
10231;DHT22;62604;49.432;8.680;2023-02-01T11:44:10;7.30;93.10
10231;DHT22;62604;49.432;8.680;2023-02-01T11:46:42;7.30;92.80
10231;DHT22;62604;49.432;8.680;2023-02-01T11:49:21;7.30;91.80
10231;DHT22;62604;49.432;8.680;2023-02-01T11:52:03;7.30;91.90
10231;DHT22;62604;49.432;8.680;2023-02-01T11:54:52;7.30;92.20
10231;DHT22;62604;49.432;8.680;2023-02-01T11:57:36;7.30;92.60
10231;DHT22;62604;49.432;8.680;2023-02-01T12:00:22;7.30;93.40
10231;DHT22;62604;49.432;8.680;2023-02-01T12:03:03;7.30;94.10
10231;DHT22;62604;49.432;8.680;2023-02-01T12:05:40;7.30;94.60
10231;DHT22;62604;49.432;8.680;2023-02-01T12:08:22;7.20;94.90
10231;DHT22;62604;49.432;8.680;2023-02-01T12:11:01;7.20;95.30
10231;DHT22;62604;49.432;8.680;2023-02-01T12:13:42;7.10;95.20
10231;DHT22;62604;49.432;8.680;2023-02-01T12:16:21;7.10;95.20
10231;DHT22;62604;49.432;8.680;2023-02-01T12:22:00;7.20;95.40
10231;DHT22;62604;49.432;8.680;2023-02-01T12:30:46;7.30;94.80
10231;DHT22;62604;49.432;8.680;2023-02-01T12:33:18;7.30;94.30
10231;DHT22;62604;49.432;8.680;2023-02-01T12:36:00;7.30;94.20
10231;DHT22;62604;49.432;8.680;2023-02-01T12:38:44;7.30;92.30
10231;DHT22;62604;49.432;8.680;2023-02-01T12:41:34;7.30;92.60
10231;DHT22;62604;49.432;8.680;2023-02-01T12:44:07;7.30;92.10
10231;DHT22;62604;49.432;8.680;2023-02-01T12:46:41;7.20;92.20
10231;DHT22;62604;49.432;8.680;2023-02-01T12:49:13;7.30;92.10
10231;DHT22;62604;49.432;8.680;2023-02-01T12:51:44;7.30;92.30
10231;DHT22;62604;49.432;8.680;2023-02-01T12:54:15;7.30;91.80
10231;DHT22;62604;49.432;8.680;2023-02-01T12:56:49;7.30;92.00
10231;DHT22;62604;49.432;8.680;2023-02-01T12:59:22;7.30;92.10
10231;DHT22;62604;49.432;8.680;2023-02-01T13:01:54;7.20;92.00
10231;DHT22;62604;49.432;8.680;2023-02-01T13:04:28;7.30;92.10
10231;DHT22;62604;49.432;8.680;2023-02-01T13:07:03;7.30;92.30
10231;DHT22;62604;49.432;8.680;2023-02-01T13:09:38;7.20;91.90
10231;DHT22;62604;49.432;8.680;2023-02-01T13:12:12;7.30;91.70
10231;DHT22;62604;49.432;8.680;2023-02-01T13:27:57;7.20;91.60
10231;DHT22;62604;49.432;8.680;2023-02-01T13:30:38;7.30;91.70
10231;DHT22;62604;49.432;8.680;2023-02-01T13:33:31;7.30;91.70
10231;DHT22;62604;49.432;8.680;2023-02-01T13:39:42;7.20;91.60
10231;DHT22;62604;49.432;8.680;2023-02-01T13:42:16;7.20;92.00
10231;DHT22;62604;49.432;8.680;2023-02-01T13:44:47;7.20;92.10
10231;DHT22;62604;49.432;8.680;2023-02-01T13:47:23;7.20;91.20
10231;DHT22;62604;49.432;8.680;2023-02-01T13:49:53;7.20;91.40
10231;DHT22;62604;49.432;8.680;2023-02-01T13:52:37;7.20;91.30
10231;DHT22;62604;49.432;8.680;2023-02-01T13:55:19;7.20;91.10
10231;DHT22;62604;49.432;8.680;2023-02-01T13:57:51;7.20;90.70
10231;DHT22;62604;49.432;8.680;2023-02-01T14:00:28;7.40;90.30
10231;DHT22;62604;49.432;8.680;2023-02-01T14:03:08;7.20;90.50
10231;DHT22;62604;49.432;8.680;2023-02-01T14:06:02;7.20;90.20
10231;DHT22;62604;49.432;8.680;2023-02-01T14:08:44;7.20;90.20
10231;DHT22;62604;49.432;8.680;2023-02-01T14:11:41;7.20;90.50
10231;DHT22;62604;49.432;8.680;2023-02-01T14:17:32;7.20;90.50
10231;DHT22;62604;49.432;8.680;2023-02-01T14:23:28;7.20;90.80
10231;DHT22;62604;49.432;8.680;2023-02-01T14:26:04;7.20;90.60
10231;DHT22;62604;49.432;8.680;2023-02-01T14:28:36;7.20;90.30
10231;DHT22;62604;49.432;8.680;2023-02-01T14:31:22;7.20;90.20
10231;DHT22;62604;49.432;8.680;2023-02-01T14:33:57;7.20;89.60
10231;DHT22;62604;49.432;8.680;2023-02-01T14:36:26;7.20;90.10
10231;DHT22;62604;49.432;8.680;2023-02-01T14:38:53;7.20;90.20
10231;DHT22;62604;49.432;8.680;2023-02-01T14:41:29;7.30;90.20
10231;DHT22;62604;49.432;8.680;2023-02-01T14:44:27;7.30;90.40
10231;DHT22;62604;49.432;8.680;2023-02-01T14:47:28;7.30;90.40
10231;DHT22;62604;49.432;8.680;2023-02-01T14:50:30;7.30;90.30
10231;DHT22;62604;49.432;8.680;2023-02-01T14:53:15;7.20;90.30
10231;DHT22;62604;49.432;8.680;2023-02-01T14:55:46;7.30;90.60
10231;DHT22;62604;49.432;8.680;2023-02-01T14:58:18;7.30;90.50
10231;DHT22;62604;49.432;8.680;2023-02-01T15:00:50;7.30;90.50
10231;DHT22;62604;49.432;8.680;2023-02-01T15:03:47;7.30;90.30
10231;DHT22;62604;49.432;8.680;2023-02-01T15:06:28;7.30;90.50
10231;DHT22;62604;49.432;8.680;2023-02-01T15:08:59;7.20;90.20
10231;DHT22;62604;49.432;8.680;2023-02-01T15:11:27;7.30;90.10
10231;DHT22;62604;49.432;8.680;2023-02-01T15:13:54;7.30;90.20
10231;DHT22;62604;49.432;8.680;2023-02-01T15:16:24;7.30;90.30
10231;DHT22;62604;49.432;8.680;2023-02-01T15:19:07;7.30;89.60
10231;DHT22;62604;49.432;8.680;2023-02-01T15:21:44;7.30;88.80
10231;DHT22;62604;49.432;8.680;2023-02-01T15:24:13;7.30;88.60
10231;DHT22;62604;49.432;8.680;2023-02-01T15:26:40;7.30;88.80
10231;DHT22;62604;49.432;8.680;2023-02-01T15:29:11;7.40;88.90
10231;DHT22;62604;49.432;8.680;2023-02-01T15:35:01;7.40;88.30
10231;DHT22;62604;49.432;8.680;2023-02-01T15:37:30;7.40;88.10
10231;DHT22;62604;49.432;8.680;2023-02-01T15:40:05;7.40;87.90
10231;DHT22;62604;49.432;8.680;2023-02-01T15:42:34;7.40;87.40
10231;DHT22;62604;49.432;8.680;2023-02-01T15:45:01;7.40;88.50
10231;DHT22;62604;49.432;8.680;2023-02-01T15:47:30;7.40;86.90
10231;DHT22;62604;49.432;8.680;2023-02-01T15:49:59;7.40;87.10
10231;DHT22;62604;49.432;8.680;2023-02-01T15:52:35;7.40;87.20
10231;DHT22;62604;49.432;8.680;2023-02-01T15:55:05;7.40;87.70
10231;DHT22;62604;49.432;8.680;2023-02-01T15:57:36;7.40;87.50
10231;DHT22;62604;49.432;8.680;2023-02-01T16:00:07;7.50;87.30
10231;DHT22;62604;49.432;8.680;2023-02-01T16:02:36;7.50;87.00
10231;DHT22;62604;49.432;8.680;2023-02-01T16:05:05;7.50;87.90
10231;DHT22;62604;49.432;8.680;2023-02-01T16:07:34;7.50;87.20
10231;DHT22;62604;49.432;8.680;2023-02-01T16:10:21;7.50;87.50
10231;DHT22;62604;49.432;8.680;2023-02-01T16:12:49;7.50;87.60
10231;DHT22;62604;49.432;8.680;2023-02-01T16:15:19;7.50;87.10
10231;DHT22;62604;49.432;8.680;2023-02-01T16:17:46;7.50;87.50
10231;DHT22;62604;49.432;8.680;2023-02-01T16:20:38;7.50;87.80
10231;DHT22;62604;49.432;8.680;2023-02-01T16:23:09;7.40;87.40
10231;DHT22;62604;49.432;8.680;2023-02-01T16:25:40;7.40;87.80
10231;DHT22;62604;49.432;8.680;2023-02-01T16:28:07;7.40;88.70
10231;DHT22;62604;49.432;8.680;2023-02-01T16:30:35;7.40;88.30
10231;DHT22;62604;49.432;8.680;2023-02-01T16:33:03;7.40;88.30
10231;DHT22;62604;49.432;8.680;2023-02-01T16:35:33;7.40;88.80
10231;DHT22;62604;49.432;8.680;2023-02-01T16:38:02;7.40;89.00
10231;DHT22;62604;49.432;8.680;2023-02-01T16:40:36;7.30;89.40
10231;DHT22;62604;49.432;8.680;2023-02-01T16:43:12;7.30;89.80
10231;DHT22;62604;49.432;8.680;2023-02-01T16:45:41;7.30;90.10
10231;DHT22;62604;49.432;8.680;2023-02-01T16:48:19;7.30;90.30
10231;DHT22;62604;49.432;8.680;2023-02-01T16:50:50;7.30;89.90
10231;DHT22;62604;49.432;8.680;2023-02-01T16:53:18;7.30;90.10
10231;DHT22;62604;49.432;8.680;2023-02-01T16:55:47;7.30;90.20